Portada
METAR-TAF:

METAR-TAF

Aeroports :

Yap, Micronèsia

latitud: 09-29N, longitud: 138-05E, altitud: 28 m

Observació

L'informe es va fer fa 1 hora i 12 minuts, a les 15:50 UTC
Vent 13 kt del Nord-Est
Temperatura 27°C
Humitat 84%
Pressió 1012 hPa
Visibilitat: 19.3 km
Núvols disperses a una alçada de 1600 ft
Cel ennuvolat a una alçada de 30000 ft

METAR: PTYA 181550Z 04013KT 12SM SCT016 BKN300 27/24 A2987 RMK SLP115 T02710238

Hora: 03:02 (17:02 UTC)

Pronòstic

L'informe es va fer fa 5 hores i 30 minuts, a les 11:32 UTC
Pronòstic vàlid del 18 a les 12 UTC al 19 a les 12 UTC
Vent 11 kt del Nord-Est
Visibilitat: 10 km
Núvols disperses a una alçada de 1600 ft
Núvols disperses a una alçada de 5000 ft
xàfecs en les proximitats

TAF: PTYA 181132Z 1812/1912 04011KT P6SM VCSH SCT016 SCT050

Observacions i pronòstics meteorològics de més de 4000 aeroports (METAR i TAF).

Les estacions disponibles són els punts grocs i vermells al mapa.

Posi el ratolí al punt desitjat per veure el nom de l'estació.

Feu clic per veure les observacions i els pronòstics meteorològics.

Per canviar el mapa: feu clic els botons verds amb una creu de color negre per apropar; al botó verd amb un guió per allunyar la imatge; o en les fletxes verdes per a mapes adjacents.


METAR-TAF: